Погода Масанчина неделю

Жамбылская область, Казахстан

22 - 28 июля
  • 22июля
    Сегодня
    +20°
    +37°
    Ясно и безоблачно
    ВремяПогодаТемператураВлажностьДавлениеВетер, м/сВероятность осадков
    02:00Ясно и безоблачно+23°C60 %702 мм1.2 м/с2 %
    05:00Ясно и безоблачно+21°C67 %703 мм0.9 м/с2 %
    08:00Ясно и безоблачно+27°C43 %704 мм0.5 м/с2 %
    11:00Ясно и безоблачно+33°C33 %704 мм1.5 м/с2 %
    14:00Ясно и безоблачно+36°C26 %703 мм2.4 м/с2 %
    17:00Ясно и безоблачно+37°C22 %703 мм2.3 м/с2 %
    20:00Ясно и безоблачно+31°C35 %702 мм2.8 м/с2 %
    23:00Ясно и безоблачно+26°C52 %702 мм1.6 м/с2 %
  • 23июля
    Вторник
    +25°
    +35°
    Небольшая облачность, возможен дождь с грозой
    ВремяПогодаТемператураВлажностьДавлениеВетер, м/сВероятность осадков
    02:00Ясно и безоблачно+23°C62 %701 мм1.2 м/с2 %
    05:00Ясно и безоблачно+20°C65 %700 мм1.6 м/с2 %
    08:00Ясно и безоблачно+30°C40 %702 мм0.4 м/с2 %
    11:00Облачно с прояснениями+34°C28 %701 мм2.6 м/с4 %
    14:00Небольшая облачность, возможен дождь с грозой+35°C29 %702 мм4.9 м/с24 %
    17:00Небольшая облачность+35°C30 %702 мм3.7 м/с27 %
    20:00Практически безоблачно+31°C40 %702 мм0.6 м/с11 %
    23:00Практически безоблачно+27°C52 %701 мм2.2 м/с2 %
  • 24июля
    Среда
    +24°
    +38°
    Ясно и безоблачно
    ВремяПогодаТемператураВлажностьДавлениеВетер, м/сВероятность осадков
    02:00Ясно и безоблачно+26°C53 %701 мм3.5 м/с2 %
    05:00Ясно и безоблачно+25°C54 %700 мм3.4 м/с2 %
    08:00Ясно и безоблачно+31°C37 %701 мм3.4 м/с2 %
    11:00Ясно и безоблачно+35°C22 %701 мм1.2 м/с3 %
    14:00Ясно и безоблачно+37°C20 %700 мм1.7 м/с7 %
    17:00Практически безоблачно+32°C21 %699 мм1.5 м/с4 %
    20:00Ясно и безоблачно+32°C31 %699 мм3.1 м/с2 %
    23:00Ясно и безоблачно+28°C46 %699 мм2.1 м/с2 %
  • 25июля
    Четверг
    +27°
    +40°
    Ясно и безоблачно
    ВремяПогодаТемператураВлажностьДавлениеВетер, м/сВероятность осадков
    02:00Ясно и безоблачно+26°C47 %698 мм2.4 м/с2 %
    05:00Ясно и безоблачно+25°C47 %698 мм2.7 м/с2 %
    08:00Ясно и безоблачно+31°C34 %700 мм1.8 м/с2 %
    11:00Ясно и безоблачно+36°C21 %699 мм1.2 м/с2 %
    14:00Ясно и безоблачно+39°C19 %699 мм2.5 м/с2 %
    17:00Небольшая облачность+39°C21 %700 мм2.4 м/с2 %
    20:00Ясно и безоблачно+35°C27 %700 мм2.0 м/с2 %
    23:00Ясно и безоблачно+31°C38 %700 мм2.6 м/с2 %
  • 26июля
    Пятница
    +24°
    +40°
    Ясно и безоблачно
    ВремяПогодаТемператураВлажностьДавлениеВетер, м/сВероятность осадков
    02:00Ясно и безоблачно+30°C36 %700 мм4.1 м/с2 %
    05:00Ясно и безоблачно+29°C36 %700 мм4.0 м/с2 %
    08:00Ясно и безоблачно+33°C27 %701 мм2.9 м/с2 %
    11:00Ясно и безоблачно+39°C16 %701 мм0.4 м/с2 %
    14:00Ясно и безоблачно+39°C14 %701 мм3.6 м/с2 %
    17:00Ясно и безоблачно+38°C14 %701 мм2.8 м/с2 %
    20:00Ясно и безоблачно+36°C25 %702 мм2.0 м/с2 %
    23:00Ясно и безоблачно+33°C28 %702 мм1.9 м/с2 %
Мы используем cookies
Соглашаюсь